sensor_id;sensor_type;location;lat;lon;timestamp;P1;durP1;ratioP1;P2;durP2;ratioP2
10248;SDS011;5169;50.560;9.714;2022-11-20T00:01:07;99.93;;;40.17;;
10248;SDS011;5169;50.560;9.714;2022-11-20T00:03:39;128.43;;;44.70;;
10248;SDS011;5169;50.560;9.714;2022-11-20T00:06:07;99.57;;;39.93;;
10248;SDS011;5169;50.560;9.714;2022-11-20T00:08:34;101.10;;;39.97;;
10248;SDS011;5169;50.560;9.714;2022-11-20T00:11:10;99.17;;;40.10;;
10248;SDS011;5169;50.560;9.714;2022-11-20T00:13:37;125.43;;;44.27;;
10248;SDS011;5169;50.560;9.714;2022-11-20T00:16:03;108.67;;;41.07;;
10248;SDS011;5169;50.560;9.714;2022-11-20T00:18:30;103.67;;;40.23;;
10248;SDS011;5169;50.560;9.714;2022-11-20T00:21:09;125.93;;;44.67;;
10248;SDS011;5169;50.560;9.714;2022-11-20T00:23:39;105.00;;;41.63;;
10248;SDS011;5169;50.560;9.714;2022-11-20T00:26:07;104.00;;;41.40;;
10248;SDS011;5169;50.560;9.714;2022-11-20T00:28:35;99.10;;;40.33;;
10248;SDS011;5169;50.560;9.714;2022-11-20T00:31:07;95.77;;;38.83;;
10248;SDS011;5169;50.560;9.714;2022-11-20T00:33:35;101.87;;;40.70;;
10248;SDS011;5169;50.560;9.714;2022-11-20T00:36:04;98.80;;;39.47;;
10248;SDS011;5169;50.560;9.714;2022-11-20T00:38:33;97.60;;;39.97;;
10248;SDS011;5169;50.560;9.714;2022-11-20T00:40:59;102.03;;;40.80;;
10248;SDS011;5169;50.560;9.714;2022-11-20T00:43:26;107.23;;;42.10;;
10248;SDS011;5169;50.560;9.714;2022-11-20T00:45:59;105.27;;;41.40;;
10248;SDS011;5169;50.560;9.714;2022-11-20T00:48:26;124.93;;;44.80;;
10248;SDS011;5169;50.560;9.714;2022-11-20T00:50:52;135.20;;;46.60;;
10248;SDS011;5169;50.560;9.714;2022-11-20T00:53:18;126.83;;;44.03;;
10248;SDS011;5169;50.560;9.714;2022-11-20T00:58:23;124.77;;;43.63;;
10248;SDS011;5169;50.560;9.714;2022-11-20T01:00:49;131.03;;;44.27;;
10248;SDS011;5169;50.560;9.714;2022-11-20T01:03:21;120.90;;;43.87;;
10248;SDS011;5169;50.560;9.714;2022-11-20T01:05:46;136.57;;;47.10;;
10248;SDS011;5169;50.560;9.714;2022-11-20T01:08:12;122.77;;;43.87;;
10248;SDS011;5169;50.560;9.714;2022-11-20T01:10:38;107.23;;;42.33;;
10248;SDS011;5169;50.560;9.714;2022-11-20T01:13:03;97.13;;;40.00;;
10248;SDS011;5169;50.560;9.714;2022-11-20T01:15:47;120.03;;;42.33;;
10248;SDS011;5169;50.560;9.714;2022-11-20T01:18:15;94.50;;;39.40;;
10248;SDS011;5169;50.560;9.714;2022-11-20T01:20:41;97.10;;;38.33;;
10248;SDS011;5169;50.560;9.714;2022-11-20T01:23:06;96.73;;;38.60;;
10248;SDS011;5169;50.560;9.714;2022-11-20T01:25:33;98.20;;;39.53;;
10248;SDS011;5169;50.560;9.714;2022-11-20T01:27:59;97.83;;;39.77;;
10248;SDS011;5169;50.560;9.714;2022-11-20T01:30:25;117.37;;;42.00;;
10248;SDS011;5169;50.560;9.714;2022-11-20T01:32:51;91.03;;;37.43;;
10248;SDS011;5169;50.560;9.714;2022-11-20T01:35:16;91.90;;;37.10;;
10248;SDS011;5169;50.560;9.714;2022-11-20T01:37:42;90.17;;;36.83;;
10248;SDS011;5169;50.560;9.714;2022-11-20T01:40:08;98.50;;;40.17;;
10248;SDS011;5169;50.560;9.714;2022-11-20T01:42:34;80.53;;;36.33;;
10248;SDS011;5169;50.560;9.714;2022-11-20T01:48:12;93.23;;;39.53;;
10248;SDS011;5169;50.560;9.714;2022-11-20T01:50:38;88.50;;;36.90;;
10248;SDS011;5169;50.560;9.714;2022-11-20T01:53:06;71.93;;;34.80;;
10248;SDS011;5169;50.560;9.714;2022-11-20T01:55:35;69.93;;;33.63;;
10248;SDS011;5169;50.560;9.714;2022-11-20T01:58:09;72.50;;;34.63;;
10248;SDS011;5169;50.560;9.714;2022-11-20T02:00:38;66.60;;;32.70;;
10248;SDS011;5169;50.560;9.714;2022-11-20T02:03:07;67.77;;;32.43;;
10248;SDS011;5169;50.560;9.714;2022-11-20T02:08:12;76.07;;;36.13;;
10248;SDS011;5169;50.560;9.714;2022-11-20T02:10:38;74.33;;;35.10;;
10248;SDS011;5169;50.560;9.714;2022-11-20T02:13:06;73.27;;;34.60;;
10248;SDS011;5169;50.560;9.714;2022-11-20T02:15:51;73.43;;;33.90;;
10248;SDS011;5169;50.560;9.714;2022-11-20T02:18:18;87.13;;;37.43;;
10248;SDS011;5169;50.560;9.714;2022-11-20T02:20:45;77.37;;;35.70;;
10248;SDS011;5169;50.560;9.714;2022-11-20T02:23:33;88.90;;;37.30;;
10248;SDS011;5169;50.560;9.714;2022-11-20T02:26:16;89.10;;;37.93;;
10248;SDS011;5169;50.560;9.714;2022-11-20T02:28:43;79.67;;;37.30;;
10248;SDS011;5169;50.560;9.714;2022-11-20T02:31:09;88.67;;;37.53;;
10248;SDS011;5169;50.560;9.714;2022-11-20T02:33:34;83.70;;;37.57;;
10248;SDS011;5169;50.560;9.714;2022-11-20T02:36:00;98.33;;;40.10;;
10248;SDS011;5169;50.560;9.714;2022-11-20T02:38:28;82.17;;;37.23;;
10248;SDS011;5169;50.560;9.714;2022-11-20T02:40:54;83.47;;;36.40;;
10248;SDS011;5169;50.560;9.714;2022-11-20T02:43:22;85.23;;;37.20;;
10248;SDS011;5169;50.560;9.714;2022-11-20T02:45:50;89.13;;;37.90;;
10248;SDS011;5169;50.560;9.714;2022-11-20T02:48:16;107.27;;;40.33;;
10248;SDS011;5169;50.560;9.714;2022-11-20T02:50:42;91.23;;;37.43;;
10248;SDS011;5169;50.560;9.714;2022-11-20T02:53:07;89.07;;;37.13;;
10248;SDS011;5169;50.560;9.714;2022-11-20T02:55:33;91.87;;;38.53;;
10248;SDS011;5169;50.560;9.714;2022-11-20T02:57:59;92.27;;;37.57;;
10248;SDS011;5169;50.560;9.714;2022-11-20T03:00:27;92.53;;;38.47;;
10248;SDS011;5169;50.560;9.714;2022-11-20T03:02:53;91.63;;;38.47;;
10248;SDS011;5169;50.560;9.714;2022-11-20T03:05:18;127.23;;;44.70;;
10248;SDS011;5169;50.560;9.714;2022-11-20T03:07:44;137.47;;;45.40;;
10248;SDS011;5169;50.560;9.714;2022-11-20T03:10:10;99.23;;;39.97;;
10248;SDS011;5169;50.560;9.714;2022-11-20T03:12:35;108.37;;;41.70;;
10248;SDS011;5169;50.560;9.714;2022-11-20T03:15:03;116.30;;;43.10;;
10248;SDS011;5169;50.560;9.714;2022-11-20T03:17:29;104.93;;;39.77;;
10248;SDS011;5169;50.560;9.714;2022-11-20T03:19:57;105.13;;;41.00;;
10248;SDS011;5169;50.560;9.714;2022-11-20T03:22:25;102.00;;;40.37;;
10248;SDS011;5169;50.560;9.714;2022-11-20T03:24:52;108.57;;;41.20;;
10248;SDS011;5169;50.560;9.714;2022-11-20T03:27:18;97.00;;;40.33;;
10248;SDS011;5169;50.560;9.714;2022-11-20T03:29:46;103.60;;;40.13;;
10248;SDS011;5169;50.560;9.714;2022-11-20T03:32:14;98.50;;;39.70;;
10248;SDS011;5169;50.560;9.714;2022-11-20T03:34:40;101.70;;;40.47;;
10248;SDS011;5169;50.560;9.714;2022-11-20T03:37:05;97.57;;;40.33;;
10248;SDS011;5169;50.560;9.714;2022-11-20T03:39:31;104.33;;;41.20;;
10248;SDS011;5169;50.560;9.714;2022-11-20T03:41:57;94.37;;;38.07;;
10248;SDS011;5169;50.560;9.714;2022-11-20T03:44:24;97.87;;;40.60;;
10248;SDS011;5169;50.560;9.714;2022-11-20T03:46:50;98.43;;;39.87;;
10248;SDS011;5169;50.560;9.714;2022-11-20T03:49:16;106.73;;;41.57;;
10248;SDS011;5169;50.560;9.714;2022-11-20T03:51:43;102.57;;;41.50;;
10248;SDS011;5169;50.560;9.714;2022-11-20T03:54:10;106.87;;;42.00;;
10248;SDS011;5169;50.560;9.714;2022-11-20T03:56:37;107.30;;;41.20;;
10248;SDS011;5169;50.560;9.714;2022-11-20T03:59:04;107.43;;;41.57;;
10248;SDS011;5169;50.560;9.714;2022-11-20T04:01:31;102.00;;;40.97;;
10248;SDS011;5169;50.560;9.714;2022-11-20T04:04:02;113.07;;;42.33;;
10248;SDS011;5169;50.560;9.714;2022-11-20T04:06:33;105.03;;;41.30;;
10248;SDS011;5169;50.560;9.714;2022-11-20T04:09:00;106.83;;;43.30;;
10248;SDS011;5169;50.560;9.714;2022-11-20T04:11:29;108.23;;;41.17;;
10248;SDS011;5169;50.560;9.714;2022-11-20T04:14:00;97.73;;;38.57;;
10248;SDS011;5169;50.560;9.714;2022-11-20T04:16:34;101.20;;;40.57;;
10248;SDS011;5169;50.560;9.714;2022-11-20T04:19:01;125.37;;;44.60;;
10248;SDS011;5169;50.560;9.714;2022-11-20T04:21:29;97.67;;;40.23;;
10248;SDS011;5169;50.560;9.714;2022-11-20T04:23:55;92.57;;;38.77;;
10248;SDS011;5169;50.560;9.714;2022-11-20T04:26:21;107.23;;;40.63;;
10248;SDS011;5169;50.560;9.714;2022-11-20T04:28:48;105.40;;;41.40;;
10248;SDS011;5169;50.560;9.714;2022-11-20T04:31:15;103.43;;;40.03;;
10248;SDS011;5169;50.560;9.714;2022-11-20T04:33:48;103.90;;;39.83;;
10248;SDS011;5169;50.560;9.714;2022-11-20T04:36:21;107.33;;;40.93;;
10248;SDS011;5169;50.560;9.714;2022-11-20T04:38:55;102.93;;;40.07;;
10248;SDS011;5169;50.560;9.714;2022-11-20T04:41:23;105.30;;;40.53;;
10248;SDS011;5169;50.560;9.714;2022-11-20T04:43:57;108.23;;;40.80;;
10248;SDS011;5169;50.560;9.714;2022-11-20T04:46:27;115.70;;;41.27;;
10248;SDS011;5169;50.560;9.714;2022-11-20T04:48:54;148.53;;;47.00;;
10248;SDS011;5169;50.560;9.714;2022-11-20T04:51:22;103.40;;;39.67;;
10248;SDS011;5169;50.560;9.714;2022-11-20T04:53:50;107.00;;;39.90;;
10248;SDS011;5169;50.560;9.714;2022-11-20T04:56:16;126.03;;;43.90;;
10248;SDS011;5169;50.560;9.714;2022-11-20T04:58:42;106.60;;;41.30;;
10248;SDS011;5169;50.560;9.714;2022-11-20T05:01:15;106.87;;;41.37;;
10248;SDS011;5169;50.560;9.714;2022-11-20T05:03:48;109.20;;;40.53;;
10248;SDS011;5169;50.560;9.714;2022-11-20T05:06:16;151.10;;;47.37;;
10248;SDS011;5169;50.560;9.714;2022-11-20T05:08:43;117.27;;;42.40;;
10248;SDS011;5169;50.560;9.714;2022-11-20T05:11:10;111.40;;;41.70;;
10248;SDS011;5169;50.560;9.714;2022-11-20T05:13:40;103.57;;;40.20;;
10248;SDS011;5169;50.560;9.714;2022-11-20T05:16:09;113.47;;;40.83;;
10248;SDS011;5169;50.560;9.714;2022-11-20T05:18:42;103.93;;;40.20;;
10248;SDS011;5169;50.560;9.714;2022-11-20T05:21:10;102.67;;;40.07;;
10248;SDS011;5169;50.560;9.714;2022-11-20T05:23:37;103.73;;;40.53;;
10248;SDS011;5169;50.560;9.714;2022-11-20T05:26:04;105.43;;;40.77;;
10248;SDS011;5169;50.560;9.714;2022-11-20T05:28:32;99.47;;;39.80;;
10248;SDS011;5169;50.560;9.714;2022-11-20T05:31:05;104.93;;;40.80;;
10248;SDS011;5169;50.560;9.714;2022-11-20T05:33:41;105.97;;;40.80;;
10248;SDS011;5169;50.560;9.714;2022-11-20T05:36:09;107.07;;;40.57;;
10248;SDS011;5169;50.560;9.714;2022-11-20T05:38:36;107.13;;;41.37;;
10248;SDS011;5169;50.560;9.714;2022-11-20T05:41:05;104.80;;;40.80;;
10248;SDS011;5169;50.560;9.714;2022-11-20T05:43:39;108.53;;;41.10;;
10248;SDS011;5169;50.560;9.714;2022-11-20T05:46:06;130.20;;;44.93;;
10248;SDS011;5169;50.560;9.714;2022-11-20T05:48:33;127.27;;;45.10;;
10248;SDS011;5169;50.560;9.714;2022-11-20T05:51:00;104.13;;;41.43;;
10248;SDS011;5169;50.560;9.714;2022-11-20T05:53:27;104.07;;;40.60;;
10248;SDS011;5169;50.560;9.714;2022-11-20T05:56:35;107.93;;;42.00;;
10248;SDS011;5169;50.560;9.714;2022-11-20T05:58:43;120.70;;;43.03;;
10248;SDS011;5169;50.560;9.714;2022-11-20T06:03:39;105.60;;;40.97;;
10248;SDS011;5169;50.560;9.714;2022-11-20T06:06:07;132.77;;;45.10;;
10248;SDS011;5169;50.560;9.714;2022-11-20T06:08:33;104.90;;;41.17;;
10248;SDS011;5169;50.560;9.714;2022-11-20T06:11:02;115.97;;;41.33;;
10248;SDS011;5169;50.560;9.714;2022-11-20T06:13:32;113.33;;;41.80;;
10248;SDS011;5169;50.560;9.714;2022-11-20T06:15:58;105.63;;;40.40;;
10248;SDS011;5169;50.560;9.714;2022-11-20T06:18:25;98.77;;;39.60;;
10248;SDS011;5169;50.560;9.714;2022-11-20T06:23:52;101.50;;;39.57;;
10248;SDS011;5169;50.560;9.714;2022-11-20T06:26:20;110.10;;;41.03;;
10248;SDS011;5169;50.560;9.714;2022-11-20T06:28:47;106.93;;;41.40;;
10248;SDS011;5169;50.560;9.714;2022-11-20T06:31:17;102.77;;;39.67;;
10248;SDS011;5169;50.560;9.714;2022-11-20T06:33:44;111.17;;;41.70;;
10248;SDS011;5169;50.560;9.714;2022-11-20T06:36:10;105.73;;;40.80;;
10248;SDS011;5169;50.560;9.714;2022-11-20T06:38:37;118.47;;;42.53;;
10248;SDS011;5169;50.560;9.714;2022-11-20T06:41:04;106.90;;;40.53;;
10248;SDS011;5169;50.560;9.714;2022-11-20T06:43:30;113.60;;;41.57;;
10248;SDS011;5169;50.560;9.714;2022-11-20T06:45:56;105.90;;;40.13;;
10248;SDS011;5169;50.560;9.714;2022-11-20T06:48:23;110.83;;;41.70;;
10248;SDS011;5169;50.560;9.714;2022-11-20T06:50:50;107.80;;;40.73;;
10248;SDS011;5169;50.560;9.714;2022-11-20T06:53:19;112.13;;;40.90;;
10248;SDS011;5169;50.560;9.714;2022-11-20T06:55:45;108.07;;;42.00;;
10248;SDS011;5169;50.560;9.714;2022-11-20T06:58:14;112.43;;;42.23;;
10248;SDS011;5169;50.560;9.714;2022-11-20T07:00:43;108.00;;;41.43;;
10248;SDS011;5169;50.560;9.714;2022-11-20T07:03:10;109.87;;;42.10;;
10248;SDS011;5169;50.560;9.714;2022-11-20T07:05:37;109.07;;;42.60;;
10248;SDS011;5169;50.560;9.714;2022-11-20T07:08:06;111.33;;;41.80;;
10248;SDS011;5169;50.560;9.714;2022-11-20T07:10:32;110.77;;;42.27;;
10248;SDS011;5169;50.560;9.714;2022-11-20T07:12:58;109.97;;;42.43;;
10248;SDS011;5169;50.560;9.714;2022-11-20T07:15:24;105.67;;;40.83;;
10248;SDS011;5169;50.560;9.714;2022-11-20T07:17:53;111.93;;;42.60;;
10248;SDS011;5169;50.560;9.714;2022-11-20T07:20:18;107.67;;;42.67;;
10248;SDS011;5169;50.560;9.714;2022-11-20T07:22:46;132.43;;;46.57;;
10248;SDS011;5169;50.560;9.714;2022-11-20T07:25:21;128.37;;;45.87;;
10248;SDS011;5169;50.560;9.714;2022-11-20T07:27:47;132.43;;;46.53;;
10248;SDS011;5169;50.560;9.714;2022-11-20T07:30:13;120.07;;;44.53;;
10248;SDS011;5169;50.560;9.714;2022-11-20T07:32:39;160.03;;;49.83;;
10248;SDS011;5169;50.560;9.714;2022-11-20T07:35:05;114.30;;;44.50;;
10248;SDS011;5169;50.560;9.714;2022-11-20T07:37:33;117.00;;;45.40;;
10248;SDS011;5169;50.560;9.714;2022-11-20T07:40:00;116.90;;;45.33;;
10248;SDS011;5169;50.560;9.714;2022-11-20T07:42:26;116.07;;;44.97;;
10248;SDS011;5169;50.560;9.714;2022-11-20T07:44:51;130.43;;;45.97;;
10248;SDS011;5169;50.560;9.714;2022-11-20T07:47:22;134.17;;;46.77;;
10248;SDS011;5169;50.560;9.714;2022-11-20T07:49:47;109.83;;;42.40;;
10248;SDS011;5169;50.560;9.714;2022-11-20T07:52:13;114.60;;;44.53;;
10248;SDS011;5169;50.560;9.714;2022-11-20T07:54:41;113.47;;;43.47;;
10248;SDS011;5169;50.560;9.714;2022-11-20T07:57:09;108.03;;;42.87;;
10248;SDS011;5169;50.560;9.714;2022-11-20T07:59:35;110.30;;;43.00;;
10248;SDS011;5169;50.560;9.714;2022-11-20T08:02:01;114.13;;;44.30;;
10248;SDS011;5169;50.560;9.714;2022-11-20T08:04:29;112.47;;;43.10;;
10248;SDS011;5169;50.560;9.714;2022-11-20T08:06:54;113.00;;;44.20;;
10248;SDS011;5169;50.560;9.714;2022-11-20T08:09:20;114.53;;;43.53;;
10248;SDS011;5169;50.560;9.714;2022-11-20T08:11:46;111.60;;;43.27;;
10248;SDS011;5169;50.560;9.714;2022-11-20T08:14:32;116.33;;;43.30;;
10248;SDS011;5169;50.560;9.714;2022-11-20T08:17:02;113.20;;;43.40;;
10248;SDS011;5169;50.560;9.714;2022-11-20T08:19:30;119.60;;;45.13;;
10248;SDS011;5169;50.560;9.714;2022-11-20T08:21:56;111.13;;;43.30;;
10248;SDS011;5169;50.560;9.714;2022-11-20T08:24:24;118.67;;;44.47;;
10248;SDS011;5169;50.560;9.714;2022-11-20T08:26:51;114.33;;;43.73;;
10248;SDS011;5169;50.560;9.714;2022-11-20T08:29:17;117.33;;;44.97;;
10248;SDS011;5169;50.560;9.714;2022-11-20T08:31:43;120.27;;;44.90;;
10248;SDS011;5169;50.560;9.714;2022-11-20T08:34:11;117.13;;;43.80;;
10248;SDS011;5169;50.560;9.714;2022-11-20T08:36:36;140.90;;;46.73;;
10248;SDS011;5169;50.560;9.714;2022-11-20T08:39:02;125.83;;;45.53;;
10248;SDS011;5169;50.560;9.714;2022-11-20T08:41:29;126.87;;;45.27;;
10248;SDS011;5169;50.560;9.714;2022-11-20T08:44:05;143.27;;;47.20;;
10248;SDS011;5169;50.560;9.714;2022-11-20T08:46:41;129.30;;;45.87;;
10248;SDS011;5169;50.560;9.714;2022-11-20T08:49:11;118.63;;;44.33;;
10248;SDS011;5169;50.560;9.714;2022-11-20T08:51:38;122.40;;;44.83;;
10248;SDS011;5169;50.560;9.714;2022-11-20T08:54:05;122.27;;;45.00;;
10248;SDS011;5169;50.560;9.714;2022-11-20T08:56:31;114.20;;;43.67;;
10248;SDS011;5169;50.560;9.714;2022-11-20T08:58:57;113.23;;;42.87;;
10248;SDS011;5169;50.560;9.714;2022-11-20T09:01:26;115.57;;;44.43;;
10248;SDS011;5169;50.560;9.714;2022-11-20T09:03:54;123.20;;;45.27;;
10248;SDS011;5169;50.560;9.714;2022-11-20T09:06:24;130.30;;;46.27;;
10248;SDS011;5169;50.560;9.714;2022-11-20T09:08:53;120.47;;;45.10;;
10248;SDS011;5169;50.560;9.714;2022-11-20T09:11:19;147.30;;;49.63;;
10248;SDS011;5169;50.560;9.714;2022-11-20T09:13:46;143.67;;;49.17;;
10248;SDS011;5169;50.560;9.714;2022-11-20T09:16:11;133.10;;;46.53;;
10248;SDS011;5169;50.560;9.714;2022-11-20T09:18:37;138.23;;;48.30;;
10248;SDS011;5169;50.560;9.714;2022-11-20T09:21:06;156.23;;;49.83;;
10248;SDS011;5169;50.560;9.714;2022-11-20T09:23:36;138.53;;;48.10;;
10248;SDS011;5169;50.560;9.714;2022-11-20T09:26:21;139.33;;;47.50;;
10248;SDS011;5169;50.560;9.714;2022-11-20T09:28:47;119.73;;;44.43;;
10248;SDS011;5169;50.560;9.714;2022-11-20T09:31:22;116.67;;;44.23;;
10248;SDS011;5169;50.560;9.714;2022-11-20T09:33:50;127.00;;;45.27;;
10248;SDS011;5169;50.560;9.714;2022-11-20T09:36:16;133.17;;;47.03;;
10248;SDS011;5169;50.560;9.714;2022-11-20T09:38:46;132.83;;;45.70;;
10248;SDS011;5169;50.560;9.714;2022-11-20T09:47:57;128.10;;;44.37;;
10248;SDS011;5169;50.560;9.714;2022-11-20T09:53:28;152.50;;;49.07;;
10248;SDS011;5169;50.560;9.714;2022-11-20T09:55:52;146.07;;;47.30;;
10248;SDS011;5169;50.560;9.714;2022-11-20T09:58:28;164.47;;;50.60;;
10248;SDS011;5169;50.560;9.714;2022-11-20T10:01:09;130.60;;;45.77;;
10248;SDS011;5169;50.560;9.714;2022-11-20T10:03:49;135.33;;;47.80;;
10248;SDS011;5169;50.560;9.714;2022-11-20T10:06:29;128.20;;;47.00;;
10248;SDS011;5169;50.560;9.714;2022-11-20T10:14:29;129.87;;;54.60;;
10248;SDS011;5169;50.560;9.714;2022-11-20T10:22:26;256.40;;;85.03;;
10248;SDS011;5169;50.560;9.714;2022-11-20T10:25:09;233.73;;;76.40;;
10248;SDS011;5169;50.560;9.714;2022-11-20T10:30:45;188.83;;;60.20;;
10248;SDS011;5169;50.560;9.714;2022-11-20T10:33:24;172.87;;;59.53;;
10248;SDS011;5169;50.560;9.714;2022-11-20T10:36:05;142.73;;;53.20;;
10248;SDS011;5169;50.560;9.714;2022-11-20T10:38:45;155.87;;;53.77;;
10248;SDS011;5169;50.560;9.714;2022-11-20T10:41:19;148.77;;;49.87;;
10248;SDS011;5169;50.560;9.714;2022-11-20T10:43:54;151.47;;;49.37;;
10248;SDS011;5169;50.560;9.714;2022-11-20T10:46:32;164.30;;;51.97;;
10248;SDS011;5169;50.560;9.714;2022-11-20T10:49:19;146.03;;;48.83;;
10248;SDS011;5169;50.560;9.714;2022-11-20T10:52:29;142.50;;;48.93;;
10248;SDS011;5169;50.560;9.714;2022-11-20T11:02:34;117.63;;;43.30;;
10248;SDS011;5169;50.560;9.714;2022-11-20T11:05:38;120.47;;;42.87;;
10248;SDS011;5169;50.560;9.714;2022-11-20T11:08:24;139.20;;;44.77;;
10248;SDS011;5169;50.560;9.714;2022-11-20T11:10:54;116.83;;;42.30;;
10248;SDS011;5169;50.560;9.714;2022-11-20T11:13:29;119.37;;;41.87;;
10248;SDS011;5169;50.560;9.714;2022-11-20T11:15:55;124.67;;;41.97;;
10248;SDS011;5169;50.560;9.714;2022-11-20T11:18:31;122.77;;;43.43;;
10248;SDS011;5169;50.560;9.714;2022-11-20T11:21:01;117.73;;;43.53;;
10248;SDS011;5169;50.560;9.714;2022-11-20T11:23:39;117.70;;;43.03;;
10248;SDS011;5169;50.560;9.714;2022-11-20T11:26:22;159.90;;;49.40;;
10248;SDS011;5169;50.560;9.714;2022-11-20T11:29:00;158.93;;;48.80;;
10248;SDS011;5169;50.560;9.714;2022-11-20T11:31:29;121.67;;;43.30;;
10248;SDS011;5169;50.560;9.714;2022-11-20T11:34:33;149.93;;;47.97;;
10248;SDS011;5169;50.560;9.714;2022-11-20T11:36:54;146.43;;;46.90;;
10248;SDS011;5169;50.560;9.714;2022-11-20T11:39:22;152.97;;;48.37;;
10248;SDS011;5169;50.560;9.714;2022-11-20T11:41:48;152.97;;;47.63;;
10248;SDS011;5169;50.560;9.714;2022-11-20T11:44:21;129.47;;;44.33;;
10248;SDS011;5169;50.560;9.714;2022-11-20T11:47:11;141.70;;;46.40;;
10248;SDS011;5169;50.560;9.714;2022-11-20T11:50:00;127.73;;;44.77;;
10248;SDS011;5169;50.560;9.714;2022-11-20T11:55:42;119.80;;;42.67;;
10248;SDS011;5169;50.560;9.714;2022-11-20T12:00:45;130.23;;;44.40;;
10248;SDS011;5169;50.560;9.714;2022-11-20T12:03:35;126.60;;;43.77;;
10248;SDS011;5169;50.560;9.714;2022-11-20T12:06:21;115.00;;;41.30;;
10248;SDS011;5169;50.560;9.714;2022-11-20T12:12:15;128.60;;;44.27;;
10248;SDS011;5169;50.560;9.714;2022-11-20T12:14:48;150.80;;;47.30;;
10248;SDS011;5169;50.560;9.714;2022-11-20T12:17:16;125.60;;;42.93;;
10248;SDS011;5169;50.560;9.714;2022-11-20T12:19:42;123.90;;;41.90;;
10248;SDS011;5169;50.560;9.714;2022-11-20T12:30:11;119.77;;;41.27;;
10248;SDS011;5169;50.560;9.714;2022-11-20T12:50:12;163.37;;;47.57;;
10248;SDS011;5169;50.560;9.714;2022-11-20T13:07:33;134.77;;;43.60;;
10248;SDS011;5169;50.560;9.714;2022-11-20T13:18:36;111.80;;;39.93;;
10248;SDS011;5169;50.560;9.714;2022-11-20T13:21:13;105.13;;;39.33;;
10248;SDS011;5169;50.560;9.714;2022-11-20T13:23:46;104.23;;;38.47;;
10248;SDS011;5169;50.560;9.714;2022-11-20T13:26:16;102.77;;;39.00;;
10248;SDS011;5169;50.560;9.714;2022-11-20T13:28:47;102.57;;;39.07;;
10248;SDS011;5169;50.560;9.714;2022-11-20T13:31:34;102.10;;;37.93;;
10248;SDS011;5169;50.560;9.714;2022-11-20T13:34:04;107.27;;;40.03;;
10248;SDS011;5169;50.560;9.714;2022-11-20T13:36:31;105.27;;;39.47;;
10248;SDS011;5169;50.560;9.714;2022-11-20T13:39:01;104.63;;;38.03;;
10248;SDS011;5169;50.560;9.714;2022-11-20T13:41:32;102.30;;;39.43;;
10248;SDS011;5169;50.560;9.714;2022-11-20T13:46:41;104.40;;;39.03;;
10248;SDS011;5169;50.560;9.714;2022-11-20T13:49:17;104.97;;;39.07;;
10248;SDS011;5169;50.560;9.714;2022-11-20T13:51:48;109.87;;;39.77;;
10248;SDS011;5169;50.560;9.714;2022-11-20T14:02:43;110.63;;;40.60;;
10248;SDS011;5169;50.560;9.714;2022-11-20T14:05:23;113.23;;;42.40;;
10248;SDS011;5169;50.560;9.714;2022-11-20T14:07:49;106.27;;;40.83;;
10248;SDS011;5169;50.560;9.714;2022-11-20T14:10:26;111.47;;;41.07;;
10248;SDS011;5169;50.560;9.714;2022-11-20T14:12:52;134.03;;;59.03;;
10248;SDS011;5169;50.560;9.714;2022-11-20T14:15:29;115.57;;;44.97;;
10248;SDS011;5169;50.560;9.714;2022-11-20T14:17:56;107.43;;;40.90;;
10248;SDS011;5169;50.560;9.714;2022-11-20T14:20:29;106.17;;;41.00;;
10248;SDS011;5169;50.560;9.714;2022-11-20T14:22:56;112.03;;;41.77;;
10248;SDS011;5169;50.560;9.714;2022-11-20T14:25:27;121.13;;;41.73;;
10248;SDS011;5169;50.560;9.714;2022-11-20T14:27:59;128.33;;;42.93;;
10248;SDS011;5169;50.560;9.714;2022-11-20T14:30:29;133.50;;;44.13;;
10248;SDS011;5169;50.560;9.714;2022-11-20T14:33:04;141.57;;;47.03;;
10248;SDS011;5169;50.560;9.714;2022-11-20T14:35:31;116.40;;;42.20;;
10248;SDS011;5169;50.560;9.714;2022-11-20T14:38:08;141.70;;;53.03;;
10248;SDS011;5169;50.560;9.714;2022-11-20T14:40:37;122.37;;;45.57;;
10248;SDS011;5169;50.560;9.714;2022-11-20T14:43:24;123.67;;;44.83;;
10248;SDS011;5169;50.560;9.714;2022-11-20T14:46:05;117.30;;;42.33;;
10248;SDS011;5169;50.560;9.714;2022-11-20T14:48:34;114.97;;;43.00;;
10248;SDS011;5169;50.560;9.714;2022-11-20T14:51:08;112.77;;;42.73;;
10248;SDS011;5169;50.560;9.714;2022-11-20T14:53:50;114.87;;;41.77;;
10248;SDS011;5169;50.560;9.714;2022-11-20T14:56:21;117.57;;;42.20;;
10248;SDS011;5169;50.560;9.714;2022-11-20T14:58:58;115.73;;;41.87;;
10248;SDS011;5169;50.560;9.714;2022-11-20T15:01:30;122.00;;;42.60;;
10248;SDS011;5169;50.560;9.714;2022-11-20T15:04:06;135.23;;;44.17;;
10248;SDS011;5169;50.560;9.714;2022-11-20T15:06:32;117.13;;;41.37;;
10248;SDS011;5169;50.560;9.714;2022-11-20T15:09:02;118.90;;;42.73;;
10248;SDS011;5169;50.560;9.714;2022-11-20T15:11:38;114.47;;;41.73;;
10248;SDS011;5169;50.560;9.714;2022-11-20T15:14:05;147.87;;;46.30;;
10248;SDS011;5169;50.560;9.714;2022-11-20T15:16:34;117.87;;;43.37;;
10248;SDS011;5169;50.560;9.714;2022-11-20T15:18:59;113.80;;;41.93;;
10248;SDS011;5169;50.560;9.714;2022-11-20T15:21:27;140.13;;;45.57;;
10248;SDS011;5169;50.560;9.714;2022-11-20T15:23:57;106.73;;;40.47;;
10248;SDS011;5169;50.560;9.714;2022-11-20T15:26:27;129.47;;;43.77;;
10248;SDS011;5169;50.560;9.714;2022-11-20T15:28:53;121.47;;;43.27;;
10248;SDS011;5169;50.560;9.714;2022-11-20T15:31:20;105.53;;;40.77;;
10248;SDS011;5169;50.560;9.714;2022-11-20T15:33:47;110.23;;;40.93;;
10248;SDS011;5169;50.560;9.714;2022-11-20T15:36:13;134.87;;;44.60;;
10248;SDS011;5169;50.560;9.714;2022-11-20T15:38:39;114.53;;;42.60;;
10248;SDS011;5169;50.560;9.714;2022-11-20T15:41:05;114.40;;;42.67;;
10248;SDS011;5169;50.560;9.714;2022-11-20T15:43:31;135.53;;;45.10;;
10248;SDS011;5169;50.560;9.714;2022-11-20T15:46:00;127.10;;;44.33;;
10248;SDS011;5169;50.560;9.714;2022-11-20T15:48:36;109.53;;;41.27;;
10248;SDS011;5169;50.560;9.714;2022-11-20T15:53:36;115.73;;;42.27;;
10248;SDS011;5169;50.560;9.714;2022-11-20T15:56:03;126.03;;;43.30;;
10248;SDS011;5169;50.560;9.714;2022-11-20T15:58:29;115.33;;;41.90;;
10248;SDS011;5169;50.560;9.714;2022-11-20T16:00:55;109.43;;;41.27;;
10248;SDS011;5169;50.560;9.714;2022-11-20T16:03:21;107.20;;;41.60;;
10248;SDS011;5169;50.560;9.714;2022-11-20T16:05:47;132.63;;;44.97;;
10248;SDS011;5169;50.560;9.714;2022-11-20T16:08:13;113.13;;;42.63;;
10248;SDS011;5169;50.560;9.714;2022-11-20T16:10:39;134.00;;;45.03;;
10248;SDS011;5169;50.560;9.714;2022-11-20T16:13:05;106.67;;;40.40;;
10248;SDS011;5169;50.560;9.714;2022-11-20T16:15:57;103.70;;;40.03;;
10248;SDS011;5169;50.560;9.714;2022-11-20T16:18:23;152.70;;;49.63;;
10248;SDS011;5169;50.560;9.714;2022-11-20T16:20:53;119.43;;;43.50;;
10248;SDS011;5169;50.560;9.714;2022-11-20T16:23:20;108.33;;;41.60;;
10248;SDS011;5169;50.560;9.714;2022-11-20T16:25:46;115.73;;;42.77;;
10248;SDS011;5169;50.560;9.714;2022-11-20T16:28:13;130.37;;;44.77;;
10248;SDS011;5169;50.560;9.714;2022-11-20T16:30:39;121.60;;;43.97;;
10248;SDS011;5169;50.560;9.714;2022-11-20T16:33:09;115.50;;;41.93;;
10248;SDS011;5169;50.560;9.714;2022-11-20T16:35:40;113.20;;;42.83;;